sensor_id;sensor_type;location;lat;lon;timestamp;P1;durP1;ratioP1;P2;durP2;ratioP2
49237;SDS011;35069;47.906;1.892;2024-02-21T00:02:03;16.85;;;6.72;;
49237;SDS011;35069;47.906;1.892;2024-02-21T00:04:29;18.42;;;6.93;;
49237;SDS011;35069;47.906;1.892;2024-02-21T00:06:54;20.65;;;6.47;;
49237;SDS011;35069;47.906;1.892;2024-02-21T00:09:20;15.73;;;6.63;;
49237;SDS011;35069;47.906;1.892;2024-02-21T00:11:46;17.70;;;7.35;;
49237;SDS011;35069;47.906;1.892;2024-02-21T00:14:12;16.40;;;5.82;;
49237;SDS011;35069;47.906;1.892;2024-02-21T00:16:38;19.15;;;5.28;;
49237;SDS011;35069;47.906;1.892;2024-02-21T00:19:04;12.98;;;5.32;;
49237;SDS011;35069;47.906;1.892;2024-02-21T00:21:29;9.48;;;5.78;;
49237;SDS011;35069;47.906;1.892;2024-02-21T00:23:55;16.92;;;6.07;;
49237;SDS011;35069;47.906;1.892;2024-02-21T00:26:20;14.07;;;5.97;;
49237;SDS011;35069;47.906;1.892;2024-02-21T00:28:46;16.13;;;6.15;;
49237;SDS011;35069;47.906;1.892;2024-02-21T00:31:12;15.40;;;5.50;;
49237;SDS011;35069;47.906;1.892;2024-02-21T00:33:37;22.23;;;5.68;;
49237;SDS011;35069;47.906;1.892;2024-02-21T00:36:03;14.30;;;5.07;;
49237;SDS011;35069;47.906;1.892;2024-02-21T00:38:29;14.85;;;5.15;;
49237;SDS011;35069;47.906;1.892;2024-02-21T00:40:54;25.35;;;6.85;;
49237;SDS011;35069;47.906;1.892;2024-02-21T00:43:20;23.58;;;6.65;;
49237;SDS011;35069;47.906;1.892;2024-02-21T00:45:48;20.77;;;6.18;;
49237;SDS011;35069;47.906;1.892;2024-02-21T00:48:14;16.42;;;7.18;;
49237;SDS011;35069;47.906;1.892;2024-02-21T00:50:40;12.55;;;6.20;;
49237;SDS011;35069;47.906;1.892;2024-02-21T00:53:05;9.07;;;5.35;;
49237;SDS011;35069;47.906;1.892;2024-02-21T00:55:31;17.75;;;5.85;;
49237;SDS011;35069;47.906;1.892;2024-02-21T00:57:57;13.02;;;5.45;;
49237;SDS011;35069;47.906;1.892;2024-02-21T01:00:22;21.23;;;7.03;;
49237;SDS011;35069;47.906;1.892;2024-02-21T01:02:48;19.85;;;6.32;;
49237;SDS011;35069;47.906;1.892;2024-02-21T01:05:13;12.10;;;5.30;;
49237;SDS011;35069;47.906;1.892;2024-02-21T01:07:39;14.90;;;5.50;;
49237;SDS011;35069;47.906;1.892;2024-02-21T01:10:05;14.88;;;5.30;;
49237;SDS011;35069;47.906;1.892;2024-02-21T01:12:31;14.48;;;6.68;;
49237;SDS011;35069;47.906;1.892;2024-02-21T01:14:56;14.23;;;5.60;;
49237;SDS011;35069;47.906;1.892;2024-02-21T01:17:22;13.95;;;6.72;;
49237;SDS011;35069;47.906;1.892;2024-02-21T01:19:48;15.70;;;5.45;;
49237;SDS011;35069;47.906;1.892;2024-02-21T01:22:13;15.05;;;5.53;;
49237;SDS011;35069;47.906;1.892;2024-02-21T01:24:39;13.70;;;5.93;;
49237;SDS011;35069;47.906;1.892;2024-02-21T01:27:05;10.85;;;5.13;;
49237;SDS011;35069;47.906;1.892;2024-02-21T01:29:31;17.58;;;5.93;;
49237;SDS011;35069;47.906;1.892;2024-02-21T01:31:56;12.25;;;5.43;;
49237;SDS011;35069;47.906;1.892;2024-02-21T01:34:22;11.93;;;5.68;;
49237;SDS011;35069;47.906;1.892;2024-02-21T01:36:47;11.85;;;6.22;;
49237;SDS011;35069;47.906;1.892;2024-02-21T01:39:13;13.60;;;5.32;;
49237;SDS011;35069;47.906;1.892;2024-02-21T01:41:38;17.08;;;5.93;;
49237;SDS011;35069;47.906;1.892;2024-02-21T01:44:04;15.00;;;5.40;;
49237;SDS011;35069;47.906;1.892;2024-02-21T01:46:29;12.55;;;6.03;;
49237;SDS011;35069;47.906;1.892;2024-02-21T01:48:56;16.98;;;6.35;;
49237;SDS011;35069;47.906;1.892;2024-02-21T01:51:22;13.95;;;7.43;;
49237;SDS011;35069;47.906;1.892;2024-02-21T01:53:51;21.30;;;6.53;;
49237;SDS011;35069;47.906;1.892;2024-02-21T01:56:17;13.25;;;5.95;;
49237;SDS011;35069;47.906;1.892;2024-02-21T01:58:43;14.50;;;6.97;;
49237;SDS011;35069;47.906;1.892;2024-02-21T02:01:09;10.75;;;5.40;;
49237;SDS011;35069;47.906;1.892;2024-02-21T02:03:35;12.95;;;5.25;;
49237;SDS011;35069;47.906;1.892;2024-02-21T02:06:01;17.75;;;6.07;;
49237;SDS011;35069;47.906;1.892;2024-02-21T02:08:27;14.70;;;6.82;;
49237;SDS011;35069;47.906;1.892;2024-02-21T02:10:53;9.18;;;5.20;;
49237;SDS011;35069;47.906;1.892;2024-02-21T02:13:18;10.63;;;5.07;;
49237;SDS011;35069;47.906;1.892;2024-02-21T02:15:47;12.45;;;7.57;;
49237;SDS011;35069;47.906;1.892;2024-02-21T02:18:14;11.88;;;5.40;;
49237;SDS011;35069;47.906;1.892;2024-02-21T02:20:40;9.18;;;5.07;;
49237;SDS011;35069;47.906;1.892;2024-02-21T02:23:07;13.45;;;6.15;;
49237;SDS011;35069;47.906;1.892;2024-02-21T02:25:37;18.58;;;5.70;;
49237;SDS011;35069;47.906;1.892;2024-02-21T02:28:04;11.20;;;5.40;;
49237;SDS011;35069;47.906;1.892;2024-02-21T02:30:33;12.65;;;5.20;;
49237;SDS011;35069;47.906;1.892;2024-02-21T02:33:02;17.58;;;7.00;;
49237;SDS011;35069;47.906;1.892;2024-02-21T02:35:29;17.13;;;6.32;;
49237;SDS011;35069;47.906;1.892;2024-02-21T02:37:54;13.18;;;6.20;;
49237;SDS011;35069;47.906;1.892;2024-02-21T02:40:20;11.10;;;5.82;;
49237;SDS011;35069;47.906;1.892;2024-02-21T02:42:46;15.55;;;5.38;;
49237;SDS011;35069;47.906;1.892;2024-02-21T02:45:13;11.90;;;5.78;;
49237;SDS011;35069;47.906;1.892;2024-02-21T02:47:43;13.45;;;5.93;;
49237;SDS011;35069;47.906;1.892;2024-02-21T02:50:10;13.30;;;6.10;;
49237;SDS011;35069;47.906;1.892;2024-02-21T02:52:36;14.23;;;6.00;;
49237;SDS011;35069;47.906;1.892;2024-02-21T02:55:02;12.88;;;6.38;;
49237;SDS011;35069;47.906;1.892;2024-02-21T02:57:28;14.05;;;5.45;;
49237;SDS011;35069;47.906;1.892;2024-02-21T02:59:54;13.60;;;5.85;;
49237;SDS011;35069;47.906;1.892;2024-02-21T03:02:20;19.00;;;6.38;;
49237;SDS011;35069;47.906;1.892;2024-02-21T03:04:45;11.88;;;5.43;;
49237;SDS011;35069;47.906;1.892;2024-02-21T03:07:11;13.45;;;5.80;;
49237;SDS011;35069;47.906;1.892;2024-02-21T03:09:37;16.75;;;5.90;;
49237;SDS011;35069;47.906;1.892;2024-02-21T03:12:03;11.95;;;5.72;;
49237;SDS011;35069;47.906;1.892;2024-02-21T03:14:30;17.08;;;7.15;;
49237;SDS011;35069;47.906;1.892;2024-02-21T03:16:56;14.50;;;4.70;;
49237;SDS011;35069;47.906;1.892;2024-02-21T03:19:24;11.75;;;5.90;;
49237;SDS011;35069;47.906;1.892;2024-02-21T03:21:50;14.77;;;5.78;;
49237;SDS011;35069;47.906;1.892;2024-02-21T03:24:16;10.02;;;5.15;;
49237;SDS011;35069;47.906;1.892;2024-02-21T03:26:42;11.15;;;5.68;;
49237;SDS011;35069;47.906;1.892;2024-02-21T03:29:08;12.98;;;4.93;;
49237;SDS011;35069;47.906;1.892;2024-02-21T03:31:36;11.55;;;5.03;;
49237;SDS011;35069;47.906;1.892;2024-02-21T03:34:02;18.60;;;7.45;;
49237;SDS011;35069;47.906;1.892;2024-02-21T03:36:28;16.40;;;6.10;;
49237;SDS011;35069;47.906;1.892;2024-02-21T03:38:54;11.45;;;5.78;;
49237;SDS011;35069;47.906;1.892;2024-02-21T03:41:20;9.00;;;6.25;;
49237;SDS011;35069;47.906;1.892;2024-02-21T03:43:45;9.73;;;5.07;;
49237;SDS011;35069;47.906;1.892;2024-02-21T03:46:11;8.82;;;5.32;;
49237;SDS011;35069;47.906;1.892;2024-02-21T03:48:36;11.05;;;4.72;;
49237;SDS011;35069;47.906;1.892;2024-02-21T03:51:02;15.10;;;5.40;;
49237;SDS011;35069;47.906;1.892;2024-02-21T03:53:28;16.60;;;5.53;;
49237;SDS011;35069;47.906;1.892;2024-02-21T03:55:54;12.13;;;5.55;;
49237;SDS011;35069;47.906;1.892;2024-02-21T03:58:20;9.32;;;5.40;;
49237;SDS011;35069;47.906;1.892;2024-02-21T04:00:45;10.25;;;5.50;;
49237;SDS011;35069;47.906;1.892;2024-02-21T04:03:11;21.67;;;6.07;;
49237;SDS011;35069;47.906;1.892;2024-02-21T04:05:36;20.00;;;4.80;;
49237;SDS011;35069;47.906;1.892;2024-02-21T04:08:05;12.05;;;5.18;;
49237;SDS011;35069;47.906;1.892;2024-02-21T04:10:31;20.52;;;8.32;;
49237;SDS011;35069;47.906;1.892;2024-02-21T04:12:57;11.77;;;4.80;;
49237;SDS011;35069;47.906;1.892;2024-02-21T04:15:22;16.63;;;5.63;;
49237;SDS011;35069;47.906;1.892;2024-02-21T04:17:48;12.45;;;4.82;;
49237;SDS011;35069;47.906;1.892;2024-02-21T04:20:14;12.40;;;5.03;;
49237;SDS011;35069;47.906;1.892;2024-02-21T04:22:44;11.40;;;5.00;;
49237;SDS011;35069;47.906;1.892;2024-02-21T04:25:10;13.02;;;5.10;;
49237;SDS011;35069;47.906;1.892;2024-02-21T04:27:39;15.10;;;5.60;;
49237;SDS011;35069;47.906;1.892;2024-02-21T04:30:06;9.23;;;5.03;;
49237;SDS011;35069;47.906;1.892;2024-02-21T04:32:32;10.93;;;4.97;;
49237;SDS011;35069;47.906;1.892;2024-02-21T04:34:58;14.95;;;4.78;;
49237;SDS011;35069;47.906;1.892;2024-02-21T04:37:23;12.68;;;4.95;;
49237;SDS011;35069;47.906;1.892;2024-02-21T04:39:49;16.77;;;5.43;;
49237;SDS011;35069;47.906;1.892;2024-02-21T04:42:15;7.35;;;4.72;;
49237;SDS011;35069;47.906;1.892;2024-02-21T04:44:41;13.27;;;4.82;;
49237;SDS011;35069;47.906;1.892;2024-02-21T04:47:07;16.65;;;5.60;;
49237;SDS011;35069;47.906;1.892;2024-02-21T04:49:33;14.52;;;6.13;;
49237;SDS011;35069;47.906;1.892;2024-02-21T04:51:59;13.40;;;5.47;;
49237;SDS011;35069;47.906;1.892;2024-02-21T04:54:25;13.52;;;4.85;;
49237;SDS011;35069;47.906;1.892;2024-02-21T04:56:51;10.80;;;4.65;;
49237;SDS011;35069;47.906;1.892;2024-02-21T04:59:16;14.88;;;5.80;;
49237;SDS011;35069;47.906;1.892;2024-02-21T05:01:42;15.20;;;4.68;;
49237;SDS011;35069;47.906;1.892;2024-02-21T05:04:08;9.43;;;5.03;;
49237;SDS011;35069;47.906;1.892;2024-02-21T05:06:37;9.10;;;4.57;;
49237;SDS011;35069;47.906;1.892;2024-02-21T05:09:06;9.35;;;4.43;;
49237;SDS011;35069;47.906;1.892;2024-02-21T05:11:33;6.15;;;3.13;;
49237;SDS011;35069;47.906;1.892;2024-02-21T05:13:59;11.60;;;4.22;;
49237;SDS011;35069;47.906;1.892;2024-02-21T05:16:25;9.98;;;4.15;;
49237;SDS011;35069;47.906;1.892;2024-02-21T05:18:50;12.27;;;5.07;;
49237;SDS011;35069;47.906;1.892;2024-02-21T05:21:16;9.55;;;4.45;;
49237;SDS011;35069;47.906;1.892;2024-02-21T05:23:41;11.18;;;4.60;;
49237;SDS011;35069;47.906;1.892;2024-02-21T05:26:07;14.88;;;4.95;;
49237;SDS011;35069;47.906;1.892;2024-02-21T05:28:33;7.57;;;4.18;;
49237;SDS011;35069;47.906;1.892;2024-02-21T05:30:58;13.52;;;4.82;;
49237;SDS011;35069;47.906;1.892;2024-02-21T05:33:24;13.43;;;4.53;;
49237;SDS011;35069;47.906;1.892;2024-02-21T05:35:50;9.93;;;4.07;;
49237;SDS011;35069;47.906;1.892;2024-02-21T05:38:16;11.20;;;4.95;;
49237;SDS011;35069;47.906;1.892;2024-02-21T05:40:41;8.80;;;4.65;;
49237;SDS011;35069;47.906;1.892;2024-02-21T05:43:07;10.27;;;4.95;;
49237;SDS011;35069;47.906;1.892;2024-02-21T05:45:33;10.18;;;4.07;;
49237;SDS011;35069;47.906;1.892;2024-02-21T05:47:59;14.30;;;4.10;;
49237;SDS011;35069;47.906;1.892;2024-02-21T05:50:25;8.65;;;4.10;;
49237;SDS011;35069;47.906;1.892;2024-02-21T05:52:54;9.35;;;4.50;;
49237;SDS011;35069;47.906;1.892;2024-02-21T05:55:20;11.13;;;3.63;;
49237;SDS011;35069;47.906;1.892;2024-02-21T05:57:46;6.95;;;3.92;;
49237;SDS011;35069;47.906;1.892;2024-02-21T06:00:12;8.75;;;4.43;;
49237;SDS011;35069;47.906;1.892;2024-02-21T06:02:38;13.85;;;5.40;;
49237;SDS011;35069;47.906;1.892;2024-02-21T06:05:05;9.90;;;4.38;;
49237;SDS011;35069;47.906;1.892;2024-02-21T06:07:32;11.23;;;3.67;;
49237;SDS011;35069;47.906;1.892;2024-02-21T06:09:58;8.23;;;4.07;;
49237;SDS011;35069;47.906;1.892;2024-02-21T06:12:24;15.63;;;4.20;;
49237;SDS011;35069;47.906;1.892;2024-02-21T06:14:50;8.70;;;4.13;;
49237;SDS011;35069;47.906;1.892;2024-02-21T06:17:16;10.82;;;4.32;;
49237;SDS011;35069;47.906;1.892;2024-02-21T06:19:42;10.85;;;4.07;;
49237;SDS011;35069;47.906;1.892;2024-02-21T06:22:09;11.70;;;4.22;;
49237;SDS011;35069;47.906;1.892;2024-02-21T06:24:35;8.27;;;4.10;;
49237;SDS011;35069;47.906;1.892;2024-02-21T06:27:01;9.48;;;4.28;;
49237;SDS011;35069;47.906;1.892;2024-02-21T06:29:33;11.90;;;4.73;;
49237;SDS011;35069;47.906;1.892;2024-02-21T06:31:59;9.75;;;4.43;;
49237;SDS011;35069;47.906;1.892;2024-02-21T06:34:24;10.13;;;4.20;;
49237;SDS011;35069;47.906;1.892;2024-02-21T06:36:51;13.93;;;4.15;;
49237;SDS011;35069;47.906;1.892;2024-02-21T06:39:16;14.32;;;6.45;;
49237;SDS011;35069;47.906;1.892;2024-02-21T06:41:42;10.27;;;4.30;;
49237;SDS011;35069;47.906;1.892;2024-02-21T06:44:08;6.65;;;4.07;;
49237;SDS011;35069;47.906;1.892;2024-02-21T06:46:34;7.68;;;5.57;;
49237;SDS011;35069;47.906;1.892;2024-02-21T06:49:00;11.93;;;4.70;;
49237;SDS011;35069;47.906;1.892;2024-02-21T06:51:28;12.18;;;5.05;;
49237;SDS011;35069;47.906;1.892;2024-02-21T06:53:54;14.68;;;5.35;;
49237;SDS011;35069;47.906;1.892;2024-02-21T06:56:20;12.95;;;5.60;;
49237;SDS011;35069;47.906;1.892;2024-02-21T06:58:51;18.00;;;6.00;;
49237;SDS011;35069;47.906;1.892;2024-02-21T07:01:17;11.10;;;5.20;;
49237;SDS011;35069;47.906;1.892;2024-02-21T07:03:42;11.57;;;5.35;;
49237;SDS011;35069;47.906;1.892;2024-02-21T07:06:08;11.75;;;4.82;;
49237;SDS011;35069;47.906;1.892;2024-02-21T07:08:34;13.70;;;5.43;;
49237;SDS011;35069;47.906;1.892;2024-02-21T07:10:59;13.80;;;4.60;;
49237;SDS011;35069;47.906;1.892;2024-02-21T07:13:25;11.63;;;5.55;;
49237;SDS011;35069;47.906;1.892;2024-02-21T07:15:50;9.05;;;5.15;;
49237;SDS011;35069;47.906;1.892;2024-02-21T07:18:16;8.18;;;5.20;;
49237;SDS011;35069;47.906;1.892;2024-02-21T07:20:41;13.48;;;5.07;;
49237;SDS011;35069;47.906;1.892;2024-02-21T07:23:07;8.55;;;4.60;;
49237;SDS011;35069;47.906;1.892;2024-02-21T07:25:33;11.73;;;5.18;;
49237;SDS011;35069;47.906;1.892;2024-02-21T07:27:59;14.73;;;4.35;;
49237;SDS011;35069;47.906;1.892;2024-02-21T07:30:25;12.98;;;5.40;;
49237;SDS011;35069;47.906;1.892;2024-02-21T07:32:50;9.82;;;5.57;;
49237;SDS011;35069;47.906;1.892;2024-02-21T07:35:17;15.90;;;4.68;;
49237;SDS011;35069;47.906;1.892;2024-02-21T07:37:43;16.10;;;5.93;;
49237;SDS011;35069;47.906;1.892;2024-02-21T07:40:12;12.25;;;5.70;;
49237;SDS011;35069;47.906;1.892;2024-02-21T07:42:39;9.88;;;4.47;;
49237;SDS011;35069;47.906;1.892;2024-02-21T07:45:04;11.70;;;5.30;;
49237;SDS011;35069;47.906;1.892;2024-02-21T07:47:31;8.85;;;5.10;;
49237;SDS011;35069;47.906;1.892;2024-02-21T07:49:56;13.50;;;6.00;;
49237;SDS011;35069;47.906;1.892;2024-02-21T07:52:22;15.48;;;5.05;;
49237;SDS011;35069;47.906;1.892;2024-02-21T07:54:47;8.88;;;5.65;;
49237;SDS011;35069;47.906;1.892;2024-02-21T07:57:13;12.32;;;5.03;;
49237;SDS011;35069;47.906;1.892;2024-02-21T07:59:38;11.52;;;5.45;;
49237;SDS011;35069;47.906;1.892;2024-02-21T08:02:07;13.63;;;5.75;;
49237;SDS011;35069;47.906;1.892;2024-02-21T08:04:33;13.43;;;5.72;;
49237;SDS011;35069;47.906;1.892;2024-02-21T08:07:02;12.88;;;5.32;;
49237;SDS011;35069;47.906;1.892;2024-02-21T08:09:29;9.93;;;5.90;;
49237;SDS011;35069;47.906;1.892;2024-02-21T08:11:55;11.65;;;5.25;;
49237;SDS011;35069;47.906;1.892;2024-02-21T08:14:21;16.15;;;6.80;;
49237;SDS011;35069;47.906;1.892;2024-02-21T08:16:47;14.35;;;5.60;;
49237;SDS011;35069;47.906;1.892;2024-02-21T08:19:12;9.13;;;5.55;;
49237;SDS011;35069;47.906;1.892;2024-02-21T08:21:38;8.82;;;5.75;;
49237;SDS011;35069;47.906;1.892;2024-02-21T08:24:04;14.93;;;5.07;;
49237;SDS011;35069;47.906;1.892;2024-02-21T08:26:30;10.07;;;5.38;;
49237;SDS011;35069;47.906;1.892;2024-02-21T08:28:56;9.00;;;4.95;;
49237;SDS011;35069;47.906;1.892;2024-02-21T08:31:25;10.52;;;5.13;;
49237;SDS011;35069;47.906;1.892;2024-02-21T08:33:59;11.68;;;4.88;;
49237;SDS011;35069;47.906;1.892;2024-02-21T08:36:32;17.05;;;5.18;;
49237;SDS011;35069;47.906;1.892;2024-02-21T08:38:58;13.27;;;5.68;;
49237;SDS011;35069;47.906;1.892;2024-02-21T08:41:24;13.23;;;5.97;;
49237;SDS011;35069;47.906;1.892;2024-02-21T08:43:51;12.45;;;4.82;;
49237;SDS011;35069;47.906;1.892;2024-02-21T08:46:18;11.18;;;5.35;;
49237;SDS011;35069;47.906;1.892;2024-02-21T08:48:49;13.13;;;5.53;;
49237;SDS011;35069;47.906;1.892;2024-02-21T08:51:18;9.00;;;4.68;;
49237;SDS011;35069;47.906;1.892;2024-02-21T08:53:44;17.00;;;5.22;;
49237;SDS011;35069;47.906;1.892;2024-02-21T08:56:10;12.75;;;5.53;;
49237;SDS011;35069;47.906;1.892;2024-02-21T08:58:36;11.55;;;5.10;;
49237;SDS011;35069;47.906;1.892;2024-02-21T09:01:03;10.50;;;4.63;;
49237;SDS011;35069;47.906;1.892;2024-02-21T09:03:33;8.18;;;4.35;;
49237;SDS011;35069;47.906;1.892;2024-02-21T09:05:59;14.35;;;4.40;;
49237;SDS011;35069;47.906;1.892;2024-02-21T09:08:25;8.50;;;5.00;;
49237;SDS011;35069;47.906;1.892;2024-02-21T09:10:51;9.50;;;4.28;;
49237;SDS011;35069;47.906;1.892;2024-02-21T09:13:17;7.65;;;3.45;;
49237;SDS011;35069;47.906;1.892;2024-02-21T09:15:43;11.75;;;4.60;;
49237;SDS011;35069;47.906;1.892;2024-02-21T09:18:09;11.98;;;4.50;;
49237;SDS011;35069;47.906;1.892;2024-02-21T09:20:35;12.38;;;5.57;;
49237;SDS011;35069;47.906;1.892;2024-02-21T09:23:00;11.23;;;4.90;;
49237;SDS011;35069;47.906;1.892;2024-02-21T09:25:26;9.00;;;4.85;;
49237;SDS011;35069;47.906;1.892;2024-02-21T09:27:53;8.93;;;4.43;;
49237;SDS011;35069;47.906;1.892;2024-02-21T09:30:19;7.63;;;4.38;;
49237;SDS011;35069;47.906;1.892;2024-02-21T09:32:45;10.20;;;5.25;;
49237;SDS011;35069;47.906;1.892;2024-02-21T09:35:11;9.98;;;3.88;;
49237;SDS011;35069;47.906;1.892;2024-02-21T09:37:37;13.40;;;5.10;;
49237;SDS011;35069;47.906;1.892;2024-02-21T09:40:06;7.50;;;4.47;;
49237;SDS011;35069;47.906;1.892;2024-02-21T09:42:36;10.10;;;4.45;;
49237;SDS011;35069;47.906;1.892;2024-02-21T09:45:06;10.98;;;4.07;;
49237;SDS011;35069;47.906;1.892;2024-02-21T09:47:37;10.10;;;4.20;;
49237;SDS011;35069;47.906;1.892;2024-02-21T09:50:12;8.13;;;4.55;;
49237;SDS011;35069;47.906;1.892;2024-02-21T09:52:39;9.77;;;4.47;;
49237;SDS011;35069;47.906;1.892;2024-02-21T09:55:06;7.63;;;4.53;;
49237;SDS011;35069;47.906;1.892;2024-02-21T09:57:35;9.85;;;4.22;;
49237;SDS011;35069;47.906;1.892;2024-02-21T10:00:02;10.27;;;4.90;;
49237;SDS011;35069;47.906;1.892;2024-02-21T10:02:32;12.57;;;4.32;;
49237;SDS011;35069;47.906;1.892;2024-02-21T10:04:58;8.48;;;5.10;;
49237;SDS011;35069;47.906;1.892;2024-02-21T10:07:24;21.70;;;4.82;;
49237;SDS011;35069;47.906;1.892;2024-02-21T10:10:00;17.88;;;4.90;;
49237;SDS011;35069;47.906;1.892;2024-02-21T10:12:26;11.00;;;4.53;;
49237;SDS011;35069;47.906;1.892;2024-02-21T10:15:04;11.85;;;5.38;;
49237;SDS011;35069;47.906;1.892;2024-02-21T10:17:33;11.32;;;5.30;;
49237;SDS011;35069;47.906;1.892;2024-02-21T10:20:08;11.35;;;6.45;;
49237;SDS011;35069;47.906;1.892;2024-02-21T10:22:34;8.82;;;3.88;;
49237;SDS011;35069;47.906;1.892;2024-02-21T10:25:10;12.30;;;5.00;;
49237;SDS011;35069;47.906;1.892;2024-02-21T10:27:37;7.05;;;3.53;;
49237;SDS011;35069;47.906;1.892;2024-02-21T10:30:07;11.02;;;4.65;;
49237;SDS011;35069;47.906;1.892;2024-02-21T10:32:48;9.45;;;4.15;;
49237;SDS011;35069;47.906;1.892;2024-02-21T10:35:14;7.57;;;3.25;;
49237;SDS011;35069;47.906;1.892;2024-02-21T10:37:50;9.43;;;4.03;;
49237;SDS011;35069;47.906;1.892;2024-02-21T10:40:20;7.68;;;3.25;;
49237;SDS011;35069;47.906;1.892;2024-02-21T10:42:47;24.52;;;3.92;;
49237;SDS011;35069;47.906;1.892;2024-02-21T10:45:15;8.52;;;2.47;;
49237;SDS011;35069;47.906;1.892;2024-02-21T10:47:41;14.68;;;3.25;;
49237;SDS011;35069;47.906;1.892;2024-02-21T10:50:14;12.60;;;3.03;;
49237;SDS011;35069;47.906;1.892;2024-02-21T10:55:19;10.85;;;2.83;;
49237;SDS011;35069;47.906;1.892;2024-02-21T10:57:51;7.32;;;3.33;;
49237;SDS011;35069;47.906;1.892;2024-02-21T11:00:18;7.00;;;2.80;;
49237;SDS011;35069;47.906;1.892;2024-02-21T11:02:47;9.45;;;3.67;;
49237;SDS011;35069;47.906;1.892;2024-02-21T11:05:14;3.72;;;2.80;;
49237;SDS011;35069;47.906;1.892;2024-02-21T11:07:41;6.72;;;3.20;;
49237;SDS011;35069;47.906;1.892;2024-02-21T11:10:19;5.95;;;3.05;;
49237;SDS011;35069;47.906;1.892;2024-02-21T11:12:47;6.40;;;3.33;;
49237;SDS011;35069;47.906;1.892;2024-02-21T11:15:13;8.32;;;4.22;;
49237;SDS011;35069;47.906;1.892;2024-02-21T11:17:39;9.40;;;3.30;;
49237;SDS011;35069;47.906;1.892;2024-02-21T11:20:12;4.35;;;3.13;;
49237;SDS011;35069;47.906;1.892;2024-02-21T11:22:41;7.18;;;2.88;;
49237;SDS011;35069;47.906;1.892;2024-02-21T11:25:07;8.85;;;2.67;;
49237;SDS011;35069;47.906;1.892;2024-02-21T11:27:36;9.63;;;3.17;;
49237;SDS011;35069;47.906;1.892;2024-02-21T11:30:04;4.68;;;2.90;;
49237;SDS011;35069;47.906;1.892;2024-02-21T11:32:30;5.97;;;3.10;;
49237;SDS011;35069;47.906;1.892;2024-02-21T11:34:57;7.68;;;3.03;;
49237;SDS011;35069;47.906;1.892;2024-02-21T11:37:33;6.93;;;3.20;;
49237;SDS011;35069;47.906;1.892;2024-02-21T11:40:01;5.90;;;2.28;;
49237;SDS011;35069;47.906;1.892;2024-02-21T11:42:28;9.40;;;3.03;;
49237;SDS011;35069;47.906;1.892;2024-02-21T11:44:55;6.18;;;2.72;;
49237;SDS011;35069;47.906;1.892;2024-02-21T11:47:22;5.63;;;2.50;;
49237;SDS011;35069;47.906;1.892;2024-02-21T11:49:48;5.22;;;1.98;;
49237;SDS011;35069;47.906;1.892;2024-02-21T11:52:17;7.03;;;2.70;;
49237;SDS011;35069;47.906;1.892;2024-02-21T11:54:45;7.05;;;3.00;;
49237;SDS011;35069;47.906;1.892;2024-02-21T11:57:13;4.03;;;2.70;;
49237;SDS011;35069;47.906;1.892;2024-02-21T11:59:51;7.45;;;2.70;;
49237;SDS011;35069;47.906;1.892;2024-02-21T12:02:38;5.35;;;3.63;;
49237;SDS011;35069;47.906;1.892;2024-02-21T12:05:04;7.30;;;2.67;;
49237;SDS011;35069;47.906;1.892;2024-02-21T12:07:30;7.72;;;2.90;;
49237;SDS011;35069;47.906;1.892;2024-02-21T12:09:58;4.63;;;2.38;;
49237;SDS011;35069;47.906;1.892;2024-02-21T12:12:25;11.88;;;3.05;;
49237;SDS011;35069;47.906;1.892;2024-02-21T12:14:55;11.30;;;2.92;;
49237;SDS011;35069;47.906;1.892;2024-02-21T12:17:23;8.00;;;3.25;;
49237;SDS011;35069;47.906;1.892;2024-02-21T12:19:50;9.35;;;3.03;;
49237;SDS011;35069;47.906;1.892;2024-02-21T12:22:16;5.07;;;3.20;;
49237;SDS011;35069;47.906;1.892;2024-02-21T12:24:43;5.35;;;2.83;;
49237;SDS011;35069;47.906;1.892;2024-02-21T12:27:12;10.38;;;3.38;;
49237;SDS011;35069;47.906;1.892;2024-02-21T12:29:38;8.20;;;2.83;;
49237;SDS011;35069;47.906;1.892;2024-02-21T12:32:04;14.63;;;3.00;;
49237;SDS011;35069;47.906;1.892;2024-02-21T12:34:30;10.18;;;2.90;;
49237;SDS011;35069;47.906;1.892;2024-02-21T12:36:58;8.60;;;2.97;;
49237;SDS011;35069;47.906;1.892;2024-02-21T12:39:24;11.57;;;3.47;;
49237;SDS011;35069;47.906;1.892;2024-02-21T12:41:52;6.82;;;2.97;;
49237;SDS011;35069;47.906;1.892;2024-02-21T12:44:19;8.63;;;2.90;;
49237;SDS011;35069;47.906;1.892;2024-02-21T12:46:44;13.07;;;4.25;;
49237;SDS011;35069;47.906;1.892;2024-02-21T12:49:10;8.05;;;3.08;;
49237;SDS011;35069;47.906;1.892;2024-02-21T12:51:36;8.70;;;3.10;;
49237;SDS011;35069;47.906;1.892;2024-02-21T12:54:03;7.18;;;3.22;;
49237;SDS011;35069;47.906;1.892;2024-02-21T12:56:28;7.95;;;3.20;;
49237;SDS011;35069;47.906;1.892;2024-02-21T12:58:56;5.95;;;2.53;;
49237;SDS011;35069;47.906;1.892;2024-02-21T13:01:22;7.50;;;3.42;;
49237;SDS011;35069;47.906;1.892;2024-02-21T13:03:48;9.43;;;3.58;;
49237;SDS011;35069;47.906;1.892;2024-02-21T13:06:13;10.73;;;3.10;;
49237;SDS011;35069;47.906;1.892;2024-02-21T13:08:39;12.57;;;4.10;;
49237;SDS011;35069;47.906;1.892;2024-02-21T13:11:06;13.27;;;3.42;;
49237;SDS011;35069;47.906;1.892;2024-02-21T13:13:31;10.73;;;3.80;;
49237;SDS011;35069;47.906;1.892;2024-02-21T13:15:58;16.33;;;3.28;;
49237;SDS011;35069;47.906;1.892;2024-02-21T13:18:24;11.13;;;3.40;;
49237;SDS011;35069;47.906;1.892;2024-02-21T13:20:49;4.10;;;2.90;;
49237;SDS011;35069;47.906;1.892;2024-02-21T13:23:15;6.57;;;2.58;;
49237;SDS011;35069;47.906;1.892;2024-02-21T13:25:41;5.95;;;2.80;;
49237;SDS011;35069;47.906;1.892;2024-02-21T13:28:06;8.40;;;2.88;;
49237;SDS011;35069;47.906;1.892;2024-02-21T13:30:32;4.88;;;3.05;;
49237;SDS011;35069;47.906;1.892;2024-02-21T13:32:58;7.40;;;3.25;;
49237;SDS011;35069;47.906;1.892;2024-02-21T13:35:23;4.75;;;2.80;;
49237;SDS011;35069;47.906;1.892;2024-02-21T13:37:49;4.65;;;2.45;;
49237;SDS011;35069;47.906;1.892;2024-02-21T13:40:15;6.80;;;3.17;;
49237;SDS011;35069;47.906;1.892;2024-02-21T13:42:41;6.30;;;2.40;;
49237;SDS011;35069;47.906;1.892;2024-02-21T13:45:08;8.75;;;3.45;;
49237;SDS011;35069;47.906;1.892;2024-02-21T13:47:34;5.85;;;3.35;;
49237;SDS011;35069;47.906;1.892;2024-02-21T13:50:01;8.75;;;2.90;;
49237;SDS011;35069;47.906;1.892;2024-02-21T13:52:29;5.80;;;2.95;;
49237;SDS011;35069;47.906;1.892;2024-02-21T13:54:55;7.25;;;3.97;;
49237;SDS011;35069;47.906;1.892;2024-02-21T13:57:21;5.95;;;2.85;;
49237;SDS011;35069;47.906;1.892;2024-02-21T13:59:47;6.57;;;3.20;;
49237;SDS011;35069;47.906;1.892;2024-02-21T14:02:12;5.25;;;3.13;;
49237;SDS011;35069;47.906;1.892;2024-02-21T14:04:38;6.22;;;3.20;;
49237;SDS011;35069;47.906;1.892;2024-02-21T14:07:04;11.07;;;4.13;;
49237;SDS011;35069;47.906;1.892;2024-02-21T14:09:29;5.45;;;3.08;;
49237;SDS011;35069;47.906;1.892;2024-02-21T14:11:55;10.77;;;3.95;;
49237;SDS011;35069;47.906;1.892;2024-02-21T14:14:20;21.27;;;4.50;;
49237;SDS011;35069;47.906;1.892;2024-02-21T14:16:46;7.65;;;4.03;;
49237;SDS011;35069;47.906;1.892;2024-02-21T14:19:13;9.63;;;3.55;;
49237;SDS011;35069;47.906;1.892;2024-02-21T14:21:39;9.02;;;3.95;;
49237;SDS011;35069;47.906;1.892;2024-02-21T14:24:05;3.83;;;2.85;;
49237;SDS011;35069;47.906;1.892;2024-02-21T14:26:33;8.93;;;4.13;;
49237;SDS011;35069;47.906;1.892;2024-02-21T14:29:00;5.65;;;4.13;;
49237;SDS011;35069;47.906;1.892;2024-02-21T14:31:30;7.75;;;3.80;;
49237;SDS011;35069;47.906;1.892;2024-02-21T14:33:59;6.10;;;3.45;;
49237;SDS011;35069;47.906;1.892;2024-02-21T14:36:26;9.32;;;3.97;;
49237;SDS011;35069;47.906;1.892;2024-02-21T14:38:52;10.48;;;3.67;;
49237;SDS011;35069;47.906;1.892;2024-02-21T14:41:18;7.57;;;4.10;;